sensor_id;sensor_type;location;lat;lon;timestamp;P1;durP1;ratioP1;P2;durP2;ratioP2
18445;SDS011;9352;50.888;4.466;2023-07-22T00:01:06;11.85;;;7.30;;
18445;SDS011;9352;50.888;4.466;2023-07-22T00:03:35;13.40;;;7.60;;
18445;SDS011;9352;50.888;4.466;2023-07-22T00:06:02;12.13;;;7.22;;
18445;SDS011;9352;50.888;4.466;2023-07-22T00:08:30;12.98;;;7.05;;
18445;SDS011;9352;50.888;4.466;2023-07-22T00:10:57;13.13;;;6.53;;
18445;SDS011;9352;50.888;4.466;2023-07-22T00:13:24;17.13;;;7.60;;
18445;SDS011;9352;50.888;4.466;2023-07-22T00:15:52;15.90;;;7.75;;
18445;SDS011;9352;50.888;4.466;2023-07-22T00:18:19;11.63;;;7.53;;
18445;SDS011;9352;50.888;4.466;2023-07-22T00:20:47;14.77;;;7.80;;
18445;SDS011;9352;50.888;4.466;2023-07-22T00:23:15;16.25;;;7.45;;
18445;SDS011;9352;50.888;4.466;2023-07-22T00:25:42;14.13;;;7.40;;
18445;SDS011;9352;50.888;4.466;2023-07-22T00:28:09;14.68;;;7.45;;
18445;SDS011;9352;50.888;4.466;2023-07-22T00:30:36;12.52;;;7.63;;
18445;SDS011;9352;50.888;4.466;2023-07-22T00:33:03;12.73;;;8.07;;
18445;SDS011;9352;50.888;4.466;2023-07-22T00:35:30;14.27;;;8.07;;
18445;SDS011;9352;50.888;4.466;2023-07-22T00:37:59;11.50;;;7.78;;
18445;SDS011;9352;50.888;4.466;2023-07-22T00:40:26;15.20;;;7.93;;
18445;SDS011;9352;50.888;4.466;2023-07-22T00:42:55;15.52;;;7.47;;
18445;SDS011;9352;50.888;4.466;2023-07-22T00:45:22;18.95;;;8.73;;
18445;SDS011;9352;50.888;4.466;2023-07-22T00:47:49;11.63;;;7.80;;
18445;SDS011;9352;50.888;4.466;2023-07-22T00:50:16;14.75;;;7.97;;
18445;SDS011;9352;50.888;4.466;2023-07-22T00:52:43;11.23;;;7.53;;
18445;SDS011;9352;50.888;4.466;2023-07-22T00:55:11;15.50;;;7.93;;
18445;SDS011;9352;50.888;4.466;2023-07-22T00:57:38;14.20;;;7.50;;
18445;SDS011;9352;50.888;4.466;2023-07-22T01:00:05;11.73;;;7.57;;
18445;SDS011;9352;50.888;4.466;2023-07-22T01:02:36;19.63;;;7.82;;
18445;SDS011;9352;50.888;4.466;2023-07-22T01:05:04;15.70;;;7.47;;
18445;SDS011;9352;50.888;4.466;2023-07-22T01:07:31;13.45;;;8.18;;
18445;SDS011;9352;50.888;4.466;2023-07-22T01:09:59;14.63;;;7.82;;
18445;SDS011;9352;50.888;4.466;2023-07-22T01:12:27;14.40;;;7.70;;
18445;SDS011;9352;50.888;4.466;2023-07-22T01:14:54;17.55;;;7.63;;
18445;SDS011;9352;50.888;4.466;2023-07-22T01:17:21;16.88;;;7.70;;
18445;SDS011;9352;50.888;4.466;2023-07-22T01:19:49;13.55;;;8.05;;
18445;SDS011;9352;50.888;4.466;2023-07-22T01:22:16;12.18;;;7.55;;
18445;SDS011;9352;50.888;4.466;2023-07-22T01:24:45;12.90;;;7.70;;
18445;SDS011;9352;50.888;4.466;2023-07-22T01:27:12;15.65;;;7.70;;
18445;SDS011;9352;50.888;4.466;2023-07-22T01:29:39;18.08;;;8.23;;
18445;SDS011;9352;50.888;4.466;2023-07-22T01:32:06;17.90;;;7.82;;
18445;SDS011;9352;50.888;4.466;2023-07-22T01:34:33;13.07;;;7.85;;
18445;SDS011;9352;50.888;4.466;2023-07-22T01:37:00;13.52;;;7.82;;
18445;SDS011;9352;50.888;4.466;2023-07-22T01:39:29;16.15;;;7.68;;
18445;SDS011;9352;50.888;4.466;2023-07-22T01:41:57;16.63;;;8.05;;
18445;SDS011;9352;50.888;4.466;2023-07-22T01:44:24;14.23;;;7.72;;
18445;SDS011;9352;50.888;4.466;2023-07-22T01:46:51;14.40;;;8.18;;
18445;SDS011;9352;50.888;4.466;2023-07-22T01:49:18;11.57;;;7.60;;
18445;SDS011;9352;50.888;4.466;2023-07-22T01:51:45;14.55;;;8.15;;
18445;SDS011;9352;50.888;4.466;2023-07-22T01:54:12;15.82;;;8.63;;
18445;SDS011;9352;50.888;4.466;2023-07-22T01:56:39;14.90;;;8.73;;
18445;SDS011;9352;50.888;4.466;2023-07-22T01:59:07;13.43;;;8.27;;
18445;SDS011;9352;50.888;4.466;2023-07-22T02:01:34;15.18;;;7.88;;
18445;SDS011;9352;50.888;4.466;2023-07-22T02:04:01;16.70;;;8.82;;
18445;SDS011;9352;50.888;4.466;2023-07-22T02:06:28;21.10;;;8.98;;
18445;SDS011;9352;50.888;4.466;2023-07-22T02:08:55;24.63;;;9.23;;
18445;SDS011;9352;50.888;4.466;2023-07-22T02:11:22;16.58;;;8.68;;
18445;SDS011;9352;50.888;4.466;2023-07-22T02:13:49;20.00;;;8.55;;
18445;SDS011;9352;50.888;4.466;2023-07-22T02:16:17;19.45;;;9.48;;
18445;SDS011;9352;50.888;4.466;2023-07-22T02:18:44;15.57;;;8.43;;
18445;SDS011;9352;50.888;4.466;2023-07-22T02:21:11;14.85;;;8.35;;
18445;SDS011;9352;50.888;4.466;2023-07-22T02:23:38;18.60;;;9.30;;
18445;SDS011;9352;50.888;4.466;2023-07-22T02:26:05;16.05;;;9.35;;
18445;SDS011;9352;50.888;4.466;2023-07-22T02:28:32;24.13;;;9.20;;
18445;SDS011;9352;50.888;4.466;2023-07-22T02:31:00;22.42;;;9.02;;
18445;SDS011;9352;50.888;4.466;2023-07-22T02:33:32;19.77;;;8.88;;
18445;SDS011;9352;50.888;4.466;2023-07-22T02:35:59;16.63;;;9.15;;
18445;SDS011;9352;50.888;4.466;2023-07-22T02:38:26;21.52;;;8.98;;
18445;SDS011;9352;50.888;4.466;2023-07-22T02:40:52;19.30;;;9.18;;
18445;SDS011;9352;50.888;4.466;2023-07-22T02:43:19;23.05;;;9.70;;
18445;SDS011;9352;50.888;4.466;2023-07-22T02:45:46;15.75;;;9.15;;
18445;SDS011;9352;50.888;4.466;2023-07-22T02:48:13;15.85;;;9.25;;
18445;SDS011;9352;50.888;4.466;2023-07-22T02:50:42;18.48;;;9.48;;
18445;SDS011;9352;50.888;4.466;2023-07-22T02:53:08;22.20;;;9.10;;
18445;SDS011;9352;50.888;4.466;2023-07-22T02:55:35;17.30;;;9.48;;
18445;SDS011;9352;50.888;4.466;2023-07-22T02:58:02;17.65;;;9.38;;
18445;SDS011;9352;50.888;4.466;2023-07-22T03:00:30;18.17;;;9.25;;
18445;SDS011;9352;50.888;4.466;2023-07-22T03:02:57;17.48;;;8.80;;
18445;SDS011;9352;50.888;4.466;2023-07-22T03:05:26;18.30;;;10.23;;
18445;SDS011;9352;50.888;4.466;2023-07-22T03:07:55;21.30;;;9.85;;
18445;SDS011;9352;50.888;4.466;2023-07-22T03:10:23;17.65;;;9.20;;
18445;SDS011;9352;50.888;4.466;2023-07-22T03:12:52;19.20;;;9.98;;
18445;SDS011;9352;50.888;4.466;2023-07-22T03:15:20;21.38;;;9.75;;
18445;SDS011;9352;50.888;4.466;2023-07-22T03:17:47;20.40;;;10.70;;
18445;SDS011;9352;50.888;4.466;2023-07-22T03:20:15;23.48;;;10.63;;
18445;SDS011;9352;50.888;4.466;2023-07-22T03:22:44;16.52;;;9.32;;
18445;SDS011;9352;50.888;4.466;2023-07-22T03:25:12;21.50;;;10.07;;
18445;SDS011;9352;50.888;4.466;2023-07-22T03:27:42;20.63;;;10.18;;
18445;SDS011;9352;50.888;4.466;2023-07-22T03:30:10;25.40;;;11.05;;
18445;SDS011;9352;50.888;4.466;2023-07-22T03:32:40;24.45;;;10.45;;
18445;SDS011;9352;50.888;4.466;2023-07-22T03:35:08;26.33;;;11.38;;
18445;SDS011;9352;50.888;4.466;2023-07-22T03:37:35;20.90;;;10.13;;
18445;SDS011;9352;50.888;4.466;2023-07-22T03:40:03;22.65;;;10.68;;
18445;SDS011;9352;50.888;4.466;2023-07-22T03:42:34;23.55;;;10.57;;
18445;SDS011;9352;50.888;4.466;2023-07-22T03:45:01;26.50;;;10.82;;
18445;SDS011;9352;50.888;4.466;2023-07-22T03:47:28;19.52;;;10.80;;
18445;SDS011;9352;50.888;4.466;2023-07-22T03:49:55;28.00;;;10.95;;
18445;SDS011;9352;50.888;4.466;2023-07-22T03:52:22;22.25;;;10.38;;
18445;SDS011;9352;50.888;4.466;2023-07-22T03:54:49;23.40;;;10.90;;
18445;SDS011;9352;50.888;4.466;2023-07-22T03:57:16;21.48;;;11.02;;
18445;SDS011;9352;50.888;4.466;2023-07-22T03:59:44;22.63;;;11.05;;
18445;SDS011;9352;50.888;4.466;2023-07-22T04:02:11;20.02;;;10.93;;
18445;SDS011;9352;50.888;4.466;2023-07-22T04:04:38;30.23;;;11.35;;
18445;SDS011;9352;50.888;4.466;2023-07-22T04:07:05;23.17;;;11.38;;
18445;SDS011;9352;50.888;4.466;2023-07-22T04:09:33;30.77;;;10.70;;
18445;SDS011;9352;50.888;4.466;2023-07-22T04:12:00;26.55;;;10.95;;
18445;SDS011;9352;50.888;4.466;2023-07-22T04:14:27;23.33;;;11.30;;
18445;SDS011;9352;50.888;4.466;2023-07-22T04:16:56;27.48;;;12.00;;
18445;SDS011;9352;50.888;4.466;2023-07-22T04:19:24;21.42;;;10.88;;
18445;SDS011;9352;50.888;4.466;2023-07-22T04:21:51;18.42;;;11.35;;
18445;SDS011;9352;50.888;4.466;2023-07-22T04:24:20;22.63;;;10.60;;
18445;SDS011;9352;50.888;4.466;2023-07-22T04:26:47;26.90;;;10.48;;
18445;SDS011;9352;50.888;4.466;2023-07-22T04:29:14;21.02;;;10.57;;
18445;SDS011;9352;50.888;4.466;2023-07-22T04:31:41;21.42;;;10.32;;
18445;SDS011;9352;50.888;4.466;2023-07-22T04:34:09;24.40;;;10.27;;
18445;SDS011;9352;50.888;4.466;2023-07-22T04:36:37;24.33;;;10.38;;
18445;SDS011;9352;50.888;4.466;2023-07-22T04:39:04;21.20;;;10.52;;
18445;SDS011;9352;50.888;4.466;2023-07-22T04:41:32;23.58;;;10.02;;
18445;SDS011;9352;50.888;4.466;2023-07-22T04:43:59;20.55;;;9.98;;
18445;SDS011;9352;50.888;4.466;2023-07-22T04:46:25;23.20;;;10.25;;
18445;SDS011;9352;50.888;4.466;2023-07-22T04:48:53;20.10;;;9.82;;
18445;SDS011;9352;50.888;4.466;2023-07-22T04:51:22;22.45;;;10.13;;
18445;SDS011;9352;50.888;4.466;2023-07-22T04:53:48;21.20;;;10.65;;
18445;SDS011;9352;50.888;4.466;2023-07-22T04:56:16;21.25;;;9.60;;
18445;SDS011;9352;50.888;4.466;2023-07-22T04:58:43;22.42;;;9.50;;
18445;SDS011;9352;50.888;4.466;2023-07-22T05:01:10;18.45;;;9.73;;
18445;SDS011;9352;50.888;4.466;2023-07-22T05:03:37;26.10;;;10.48;;
18445;SDS011;9352;50.888;4.466;2023-07-22T05:06:05;32.08;;;10.20;;
18445;SDS011;9352;50.888;4.466;2023-07-22T05:08:34;22.38;;;9.70;;
18445;SDS011;9352;50.888;4.466;2023-07-22T05:11:03;18.63;;;9.57;;
18445;SDS011;9352;50.888;4.466;2023-07-22T05:13:30;19.05;;;10.02;;
18445;SDS011;9352;50.888;4.466;2023-07-22T05:15:57;28.67;;;9.73;;
18445;SDS011;9352;50.888;4.466;2023-07-22T05:18:24;21.92;;;9.45;;
18445;SDS011;9352;50.888;4.466;2023-07-22T05:20:51;18.83;;;9.38;;
18445;SDS011;9352;50.888;4.466;2023-07-22T05:23:17;26.80;;;9.40;;
18445;SDS011;9352;50.888;4.466;2023-07-22T05:25:51;19.42;;;9.02;;
18445;SDS011;9352;50.888;4.466;2023-07-22T05:28:18;19.25;;;9.05;;
18445;SDS011;9352;50.888;4.466;2023-07-22T05:30:45;18.55;;;9.10;;
18445;SDS011;9352;50.888;4.466;2023-07-22T05:33:13;25.63;;;9.70;;
18445;SDS011;9352;50.888;4.466;2023-07-22T05:35:40;19.02;;;8.85;;
18445;SDS011;9352;50.888;4.466;2023-07-22T05:38:07;20.17;;;9.23;;
18445;SDS011;9352;50.888;4.466;2023-07-22T05:40:33;25.17;;;9.45;;
18445;SDS011;9352;50.888;4.466;2023-07-22T05:43:02;18.17;;;9.00;;
18445;SDS011;9352;50.888;4.466;2023-07-22T05:45:29;29.48;;;8.60;;
18445;SDS011;9352;50.888;4.466;2023-07-22T05:47:55;18.20;;;8.48;;
18445;SDS011;9352;50.888;4.466;2023-07-22T05:50:22;23.35;;;8.50;;
18445;SDS011;9352;50.888;4.466;2023-07-22T05:52:50;23.65;;;8.18;;
18445;SDS011;9352;50.888;4.466;2023-07-22T05:55:17;18.13;;;7.72;;
18445;SDS011;9352;50.888;4.466;2023-07-22T05:57:44;17.20;;;7.35;;
18445;SDS011;9352;50.888;4.466;2023-07-22T06:00:13;17.63;;;7.82;;
18445;SDS011;9352;50.888;4.466;2023-07-22T06:02:40;13.68;;;7.47;;
18445;SDS011;9352;50.888;4.466;2023-07-22T06:05:07;18.15;;;8.18;;
18445;SDS011;9352;50.888;4.466;2023-07-22T06:07:34;18.40;;;7.38;;
18445;SDS011;9352;50.888;4.466;2023-07-22T06:10:01;19.65;;;8.07;;
18445;SDS011;9352;50.888;4.466;2023-07-22T06:12:28;14.77;;;7.15;;
18445;SDS011;9352;50.888;4.466;2023-07-22T06:14:55;12.57;;;7.38;;
18445;SDS011;9352;50.888;4.466;2023-07-22T06:17:24;15.10;;;6.63;;
18445;SDS011;9352;50.888;4.466;2023-07-22T06:19:51;16.90;;;7.18;;
18445;SDS011;9352;50.888;4.466;2023-07-22T06:22:17;17.95;;;6.82;;
18445;SDS011;9352;50.888;4.466;2023-07-22T06:24:44;20.23;;;7.55;;
18445;SDS011;9352;50.888;4.466;2023-07-22T06:27:11;14.05;;;6.78;;
18445;SDS011;9352;50.888;4.466;2023-07-22T06:29:38;19.85;;;6.80;;
18445;SDS011;9352;50.888;4.466;2023-07-22T06:32:05;14.20;;;5.90;;
18445;SDS011;9352;50.888;4.466;2023-07-22T06:34:34;18.13;;;6.97;;
18445;SDS011;9352;50.888;4.466;2023-07-22T06:37:01;17.75;;;6.90;;
18445;SDS011;9352;50.888;4.466;2023-07-22T06:39:28;16.30;;;6.85;;
18445;SDS011;9352;50.888;4.466;2023-07-22T06:41:55;16.17;;;6.65;;
18445;SDS011;9352;50.888;4.466;2023-07-22T06:44:21;13.32;;;6.55;;
18445;SDS011;9352;50.888;4.466;2023-07-22T06:46:48;21.55;;;6.80;;
18445;SDS011;9352;50.888;4.466;2023-07-22T06:49:15;13.02;;;6.47;;
18445;SDS011;9352;50.888;4.466;2023-07-22T06:51:43;12.68;;;6.30;;
18445;SDS011;9352;50.888;4.466;2023-07-22T06:54:10;12.30;;;5.90;;
18445;SDS011;9352;50.888;4.466;2023-07-22T06:56:37;16.90;;;6.88;;
18445;SDS011;9352;50.888;4.466;2023-07-22T06:59:04;19.25;;;6.13;;
18445;SDS011;9352;50.888;4.466;2023-07-22T07:01:31;14.13;;;6.10;;
18445;SDS011;9352;50.888;4.466;2023-07-22T07:03:58;18.33;;;6.00;;
18445;SDS011;9352;50.888;4.466;2023-07-22T07:06:25;21.02;;;6.38;;
18445;SDS011;9352;50.888;4.466;2023-07-22T07:08:53;13.80;;;5.82;;
18445;SDS011;9352;50.888;4.466;2023-07-22T07:11:20;16.73;;;5.47;;
18445;SDS011;9352;50.888;4.466;2023-07-22T07:13:47;11.95;;;5.15;;
18445;SDS011;9352;50.888;4.466;2023-07-22T07:16:20;12.75;;;5.70;;
18445;SDS011;9352;50.888;4.466;2023-07-22T07:18:48;12.23;;;5.20;;
18445;SDS011;9352;50.888;4.466;2023-07-22T07:21:15;18.48;;;6.35;;
18445;SDS011;9352;50.888;4.466;2023-07-22T07:23:42;14.23;;;5.65;;
18445;SDS011;9352;50.888;4.466;2023-07-22T07:26:11;11.93;;;5.30;;
18445;SDS011;9352;50.888;4.466;2023-07-22T07:28:38;12.18;;;6.00;;
18445;SDS011;9352;50.888;4.466;2023-07-22T07:31:05;10.77;;;5.70;;
18445;SDS011;9352;50.888;4.466;2023-07-22T07:33:32;15.82;;;5.82;;
18445;SDS011;9352;50.888;4.466;2023-07-22T07:35:59;11.73;;;5.60;;
18445;SDS011;9352;50.888;4.466;2023-07-22T07:38:26;12.20;;;5.55;;
18445;SDS011;9352;50.888;4.466;2023-07-22T07:40:55;14.32;;;5.53;;
18445;SDS011;9352;50.888;4.466;2023-07-22T07:43:24;13.95;;;5.50;;
18445;SDS011;9352;50.888;4.466;2023-07-22T07:45:59;13.63;;;5.43;;
18445;SDS011;9352;50.888;4.466;2023-07-22T07:48:39;13.60;;;5.45;;
18445;SDS011;9352;50.888;4.466;2023-07-22T07:51:05;12.50;;;5.03;;
18445;SDS011;9352;50.888;4.466;2023-07-22T07:53:32;8.27;;;4.88;;
18445;SDS011;9352;50.888;4.466;2023-07-22T07:55:59;12.75;;;5.13;;
18445;SDS011;9352;50.888;4.466;2023-07-22T07:58:27;11.20;;;5.20;;
18445;SDS011;9352;50.888;4.466;2023-07-22T08:00:54;9.32;;;5.03;;
18445;SDS011;9352;50.888;4.466;2023-07-22T08:03:21;15.52;;;5.35;;
18445;SDS011;9352;50.888;4.466;2023-07-22T08:05:48;11.60;;;5.05;;
18445;SDS011;9352;50.888;4.466;2023-07-22T08:08:15;14.10;;;5.07;;
18445;SDS011;9352;50.888;4.466;2023-07-22T08:10:42;15.73;;;5.15;;
18445;SDS011;9352;50.888;4.466;2023-07-22T08:13:10;14.18;;;4.80;;
18445;SDS011;9352;50.888;4.466;2023-07-22T08:15:38;14.07;;;4.90;;
18445;SDS011;9352;50.888;4.466;2023-07-22T08:18:06;11.88;;;4.70;;
18445;SDS011;9352;50.888;4.466;2023-07-22T08:20:33;12.73;;;4.22;;
18445;SDS011;9352;50.888;4.466;2023-07-22T08:23:00;15.52;;;4.63;;
18445;SDS011;9352;50.888;4.466;2023-07-22T08:25:27;13.68;;;4.90;;
18445;SDS011;9352;50.888;4.466;2023-07-22T08:27:54;10.15;;;4.47;;
18445;SDS011;9352;50.888;4.466;2023-07-22T08:30:21;10.93;;;4.45;;
18445;SDS011;9352;50.888;4.466;2023-07-22T08:32:49;11.20;;;4.10;;
18445;SDS011;9352;50.888;4.466;2023-07-22T08:35:16;7.10;;;3.60;;
18445;SDS011;9352;50.888;4.466;2023-07-22T08:37:43;8.30;;;3.97;;
18445;SDS011;9352;50.888;4.466;2023-07-22T08:40:12;8.93;;;3.90;;
18445;SDS011;9352;50.888;4.466;2023-07-22T08:42:39;16.70;;;4.07;;
18445;SDS011;9352;50.888;4.466;2023-07-22T08:45:08;7.15;;;3.40;;
18445;SDS011;9352;50.888;4.466;2023-07-22T08:47:37;10.25;;;3.70;;
18445;SDS011;9352;50.888;4.466;2023-07-22T08:50:12;6.70;;;3.50;;
18445;SDS011;9352;50.888;4.466;2023-07-22T08:52:44;12.85;;;3.85;;
18445;SDS011;9352;50.888;4.466;2023-07-22T08:55:12;6.43;;;3.33;;
18445;SDS011;9352;50.888;4.466;2023-07-22T08:57:40;6.00;;;3.28;;
18445;SDS011;9352;50.888;4.466;2023-07-22T09:00:08;9.88;;;4.00;;
18445;SDS011;9352;50.888;4.466;2023-07-22T09:02:37;12.85;;;3.63;;
18445;SDS011;9352;50.888;4.466;2023-07-22T09:05:05;4.43;;;3.08;;
18445;SDS011;9352;50.888;4.466;2023-07-22T09:07:34;8.98;;;3.30;;
18445;SDS011;9352;50.888;4.466;2023-07-22T09:10:01;8.35;;;3.60;;
18445;SDS011;9352;50.888;4.466;2023-07-22T09:12:29;5.70;;;2.97;;
18445;SDS011;9352;50.888;4.466;2023-07-22T09:14:57;6.40;;;3.33;;
18445;SDS011;9352;50.888;4.466;2023-07-22T09:17:25;9.57;;;3.20;;
18445;SDS011;9352;50.888;4.466;2023-07-22T09:19:53;6.07;;;2.95;;
18445;SDS011;9352;50.888;4.466;2023-07-22T09:22:24;3.85;;;2.90;;
18445;SDS011;9352;50.888;4.466;2023-07-22T09:24:53;8.77;;;3.00;;
18445;SDS011;9352;50.888;4.466;2023-07-22T09:27:38;6.88;;;2.83;;
18445;SDS011;9352;50.888;4.466;2023-07-22T09:30:17;3.78;;;2.80;;
18445;SDS011;9352;50.888;4.466;2023-07-22T09:32:47;4.90;;;2.60;;
18445;SDS011;9352;50.888;4.466;2023-07-22T09:35:14;6.65;;;2.65;;
18445;SDS011;9352;50.888;4.466;2023-07-22T09:37:41;3.58;;;2.60;;
18445;SDS011;9352;50.888;4.466;2023-07-22T09:40:19;8.88;;;2.22;;
18445;SDS011;9352;50.888;4.466;2023-07-22T09:42:47;5.13;;;2.33;;
18445;SDS011;9352;50.888;4.466;2023-07-22T09:45:15;6.18;;;2.47;;
18445;SDS011;9352;50.888;4.466;2023-07-22T09:47:43;5.15;;;2.38;;
18445;SDS011;9352;50.888;4.466;2023-07-22T09:50:12;2.92;;;2.08;;
18445;SDS011;9352;50.888;4.466;2023-07-22T09:52:46;6.47;;;2.30;;
18445;SDS011;9352;50.888;4.466;2023-07-22T09:55:15;2.42;;;2.22;;
18445;SDS011;9352;50.888;4.466;2023-07-22T09:57:45;2.85;;;2.45;;
18445;SDS011;9352;50.888;4.466;2023-07-22T10:00:13;3.42;;;2.55;;
18445;SDS011;9352;50.888;4.466;2023-07-22T10:02:42;3.50;;;2.53;;
18445;SDS011;9352;50.888;4.466;2023-07-22T10:05:11;2.70;;;2.10;;
18445;SDS011;9352;50.888;4.466;2023-07-22T10:07:44;2.08;;;1.90;;
18445;SDS011;9352;50.888;4.466;2023-07-22T10:10:12;6.60;;;2.13;;
18445;SDS011;9352;50.888;4.466;2023-07-22T10:12:41;3.65;;;1.90;;
18445;SDS011;9352;50.888;4.466;2023-07-22T10:15:10;2.35;;;2.15;;
18445;SDS011;9352;50.888;4.466;2023-07-22T10:17:38;2.63;;;2.00;;
18445;SDS011;9352;50.888;4.466;2023-07-22T10:20:06;3.08;;;1.92;;
18445;SDS011;9352;50.888;4.466;2023-07-22T10:22:35;3.00;;;2.05;;
18445;SDS011;9352;50.888;4.466;2023-07-22T10:25:04;4.00;;;2.20;;
18445;SDS011;9352;50.888;4.466;2023-07-22T10:27:33;3.20;;;2.10;;
18445;SDS011;9352;50.888;4.466;2023-07-22T10:30:01;3.25;;;2.10;;
18445;SDS011;9352;50.888;4.466;2023-07-22T10:32:34;5.15;;;2.35;;
18445;SDS011;9352;50.888;4.466;2023-07-22T10:35:02;3.50;;;2.15;;
18445;SDS011;9352;50.888;4.466;2023-07-22T10:37:30;5.28;;;1.90;;
18445;SDS011;9352;50.888;4.466;2023-07-22T10:40:01;10.27;;;2.08;;
18445;SDS011;9352;50.888;4.466;2023-07-22T10:42:43;3.17;;;1.77;;
18445;SDS011;9352;50.888;4.466;2023-07-22T10:45:25;5.22;;;2.20;;
18445;SDS011;9352;50.888;4.466;2023-07-22T10:48:05;3.40;;;1.90;;
18445;SDS011;9352;50.888;4.466;2023-07-22T10:50:42;3.10;;;1.85;;
18445;SDS011;9352;50.888;4.466;2023-07-22T10:53:12;1.95;;;1.67;;
18445;SDS011;9352;50.888;4.466;2023-07-22T10:58:29;3.50;;;1.80;;
18445;SDS011;9352;50.888;4.466;2023-07-22T11:01:00;3.50;;;2.00;;
18445;SDS011;9352;50.888;4.466;2023-07-22T11:06:38;1.95;;;1.85;;
18445;SDS011;9352;50.888;4.466;2023-07-22T11:09:06;1.77;;;1.77;;
18445;SDS011;9352;50.888;4.466;2023-07-22T11:11:36;2.00;;;1.90;;
18445;SDS011;9352;50.888;4.466;2023-07-22T11:14:13;2.13;;;1.90;;
18445;SDS011;9352;50.888;4.466;2023-07-22T11:16:41;2.28;;;1.90;;
18445;SDS011;9352;50.888;4.466;2023-07-22T11:19:10;4.10;;;2.20;;
18445;SDS011;9352;50.888;4.466;2023-07-22T11:21:38;2.40;;;2.05;;
18445;SDS011;9352;50.888;4.466;2023-07-22T11:24:06;2.05;;;1.80;;
18445;SDS011;9352;50.888;4.466;2023-07-22T11:26:33;6.13;;;2.08;;
18445;SDS011;9352;50.888;4.466;2023-07-22T11:29:00;4.18;;;2.22;;
18445;SDS011;9352;50.888;4.466;2023-07-22T11:31:31;2.40;;;2.20;;
18445;SDS011;9352;50.888;4.466;2023-07-22T11:33:58;4.25;;;2.42;;
18445;SDS011;9352;50.888;4.466;2023-07-22T11:36:26;5.50;;;2.47;;
18445;SDS011;9352;50.888;4.466;2023-07-22T11:38:53;4.97;;;2.17;;
18445;SDS011;9352;50.888;4.466;2023-07-22T11:41:27;3.63;;;1.75;;
18445;SDS011;9352;50.888;4.466;2023-07-22T11:43:53;3.08;;;2.10;;
18445;SDS011;9352;50.888;4.466;2023-07-22T11:46:23;2.65;;;2.45;;
18445;SDS011;9352;50.888;4.466;2023-07-22T11:48:50;3.47;;;1.90;;
18445;SDS011;9352;50.888;4.466;2023-07-22T11:51:18;4.85;;;2.00;;
18445;SDS011;9352;50.888;4.466;2023-07-22T11:53:48;4.13;;;1.77;;
18445;SDS011;9352;50.888;4.466;2023-07-22T11:56:20;2.55;;;1.98;;
18445;SDS011;9352;50.888;4.466;2023-07-22T11:58:50;3.78;;;2.10;;
18445;SDS011;9352;50.888;4.466;2023-07-22T12:01:18;2.15;;;1.95;;
18445;SDS011;9352;50.888;4.466;2023-07-22T12:03:46;2.85;;;2.00;;
18445;SDS011;9352;50.888;4.466;2023-07-22T12:06:14;4.55;;;2.10;;
18445;SDS011;9352;50.888;4.466;2023-07-22T12:08:45;3.03;;;1.95;;
18445;SDS011;9352;50.888;4.466;2023-07-22T12:11:17;2.60;;;2.28;;
18445;SDS011;9352;50.888;4.466;2023-07-22T12:13:44;2.35;;;2.10;;
18445;SDS011;9352;50.888;4.466;2023-07-22T12:16:20;2.55;;;2.35;;
18445;SDS011;9352;50.888;4.466;2023-07-22T12:18:49;2.47;;;2.28;;
18445;SDS011;9352;50.888;4.466;2023-07-22T12:21:20;2.30;;;2.00;;
18445;SDS011;9352;50.888;4.466;2023-07-22T12:23:48;2.15;;;1.98;;
18445;SDS011;9352;50.888;4.466;2023-07-22T12:26:15;2.80;;;2.28;;
18445;SDS011;9352;50.888;4.466;2023-07-22T12:28:42;3.70;;;2.03;;
18445;SDS011;9352;50.888;4.466;2023-07-22T12:31:09;3.05;;;1.92;;
18445;SDS011;9352;50.888;4.466;2023-07-22T12:33:36;2.22;;;2.00;;
18445;SDS011;9352;50.888;4.466;2023-07-22T12:36:03;2.42;;;2.10;;
18445;SDS011;9352;50.888;4.466;2023-07-22T12:38:30;4.10;;;2.00;;
18445;SDS011;9352;50.888;4.466;2023-07-22T12:40:59;2.53;;;2.30;;
18445;SDS011;9352;50.888;4.466;2023-07-22T12:43:26;2.60;;;2.30;;
18445;SDS011;9352;50.888;4.466;2023-07-22T12:45:54;5.63;;;2.10;;
18445;SDS011;9352;50.888;4.466;2023-07-22T12:48:21;2.60;;;1.80;;
18445;SDS011;9352;50.888;4.466;2023-07-22T12:50:49;1.70;;;1.70;;
18445;SDS011;9352;50.888;4.466;2023-07-22T12:53:16;2.13;;;2.00;;
18445;SDS011;9352;50.888;4.466;2023-07-22T12:55:43;1.98;;;1.83;;
18445;SDS011;9352;50.888;4.466;2023-07-22T12:58:11;6.07;;;1.85;;
18445;SDS011;9352;50.888;4.466;2023-07-22T13:00:38;2.35;;;2.15;;
18445;SDS011;9352;50.888;4.466;2023-07-22T13:03:06;2.15;;;1.90;;
18445;SDS011;9352;50.888;4.466;2023-07-22T13:05:32;2.00;;;1.90;;
18445;SDS011;9352;50.888;4.466;2023-07-22T13:07:59;7.53;;;2.08;;
18445;SDS011;9352;50.888;4.466;2023-07-22T13:10:29;2.20;;;2.00;;
18445;SDS011;9352;50.888;4.466;2023-07-22T13:13:02;1.80;;;1.70;;
18445;SDS011;9352;50.888;4.466;2023-07-22T13:15:30;4.32;;;1.90;;
18445;SDS011;9352;50.888;4.466;2023-07-22T13:17:57;2.50;;;1.92;;
18445;SDS011;9352;50.888;4.466;2023-07-22T13:20:24;2.30;;;2.10;;
18445;SDS011;9352;50.888;4.466;2023-07-22T13:22:51;1.95;;;1.85;;
18445;SDS011;9352;50.888;4.466;2023-07-22T13:25:18;7.07;;;2.20;;
18445;SDS011;9352;50.888;4.466;2023-07-22T13:27:45;3.30;;;2.20;;
18445;SDS011;9352;50.888;4.466;2023-07-22T13:30:12;2.78;;;1.70;;
18445;SDS011;9352;50.888;4.466;2023-07-22T13:32:40;6.50;;;2.25;;
18445;SDS011;9352;50.888;4.466;2023-07-22T13:35:07;2.40;;;1.95;;
18445;SDS011;9352;50.888;4.466;2023-07-22T13:37:35;2.47;;;1.85;;
18445;SDS011;9352;50.888;4.466;2023-07-22T13:40:02;2.08;;;1.90;;
18445;SDS011;9352;50.888;4.466;2023-07-22T13:42:35;6.22;;;1.95;;
18445;SDS011;9352;50.888;4.466;2023-07-22T13:45:02;4.07;;;2.15;;
18445;SDS011;9352;50.888;4.466;2023-07-22T13:47:30;6.78;;;2.15;;
18445;SDS011;9352;50.888;4.466;2023-07-22T13:49:58;1.90;;;1.80;;
18445;SDS011;9352;50.888;4.466;2023-07-22T13:52:25;8.85;;;2.10;;
18445;SDS011;9352;50.888;4.466;2023-07-22T13:54:52;1.90;;;1.80;;
18445;SDS011;9352;50.888;4.466;2023-07-22T13:57:18;3.30;;;2.30;;
18445;SDS011;9352;50.888;4.466;2023-07-22T13:59:45;1.92;;;1.83;;
18445;SDS011;9352;50.888;4.466;2023-07-22T14:02:12;7.93;;;2.22;;
18445;SDS011;9352;50.888;4.466;2023-07-22T14:04:39;3.97;;;2.08;;
18445;SDS011;9352;50.888;4.466;2023-07-22T14:07:07;5.03;;;1.98;;
18445;SDS011;9352;50.888;4.466;2023-07-22T14:09:34;2.45;;;2.10;;
18445;SDS011;9352;50.888;4.466;2023-07-22T14:12:01;2.10;;;1.90;;
18445;SDS011;9352;50.888;4.466;2023-07-22T14:14:29;3.13;;;2.03;;
18445;SDS011;9352;50.888;4.466;2023-07-22T14:16:56;3.05;;;2.08;;
18445;SDS011;9352;50.888;4.466;2023-07-22T14:19:23;2.30;;;2.10;;
18445;SDS011;9352;50.888;4.466;2023-07-22T14:21:50;6.90;;;2.30;;
18445;SDS011;9352;50.888;4.466;2023-07-22T14:24:18;5.93;;;2.13;;
18445;SDS011;9352;50.888;4.466;2023-07-22T14:26:45;2.10;;;2.00;;
18445;SDS011;9352;50.888;4.466;2023-07-22T14:29:13;3.45;;;2.00;;
18445;SDS011;9352;50.888;4.466;2023-07-22T14:31:41;4.90;;;2.00;;
18445;SDS011;9352;50.888;4.466;2023-07-22T14:34:09;7.65;;;2.10;;
18445;SDS011;9352;50.888;4.466;2023-07-22T14:36:36;2.67;;;2.10;;
18445;SDS011;9352;50.888;4.466;2023-07-22T14:39:02;2.10;;;2.00;;
18445;SDS011;9352;50.888;4.466;2023-07-22T14:41:31;5.50;;;2.05;;
18445;SDS011;9352;50.888;4.466;2023-07-22T14:43:58;4.35;;;1.90;;
18445;SDS011;9352;50.888;4.466;2023-07-22T14:46:25;2.85;;;2.03;;
18445;SDS011;9352;50.888;4.466;2023-07-22T14:48:52;4.07;;;1.80;;
18445;SDS011;9352;50.888;4.466;2023-07-22T14:51:19;3.45;;;1.90;;
18445;SDS011;9352;50.888;4.466;2023-07-22T14:53:46;4.82;;;1.92;;
18445;SDS011;9352;50.888;4.466;2023-07-22T14:56:13;2.88;;;2.10;;
18445;SDS011;9352;50.888;4.466;2023-07-22T14:58:41;7.00;;;2.25;;
18445;SDS011;9352;50.888;4.466;2023-07-22T15:01:08;5.32;;;2.05;;
18445;SDS011;9352;50.888;4.466;2023-07-22T15:03:36;4.97;;;2.10;;